createdAt,value
2023-03-21T00:01:36.354Z,100.00
2023-03-21T00:04:05.470Z,100.00
2023-03-21T00:06:33.402Z,100.00
2023-03-21T00:09:00.900Z,100.00
2023-03-21T00:11:28.370Z,100.00
2023-03-21T00:13:58.407Z,100.00
2023-03-21T00:16:36.892Z,100.00
2023-03-21T00:19:09.673Z,100.00
2023-03-21T00:21:59.256Z,100.00
2023-03-21T00:24:26.049Z,100.00
2023-03-21T00:26:53.913Z,100.00
2023-03-21T00:29:21.567Z,100.00
2023-03-21T00:31:49.167Z,100.00
2023-03-21T00:34:26.715Z,100.00
2023-03-21T00:37:04.185Z,100.00
2023-03-21T00:39:32.050Z,100.00
2023-03-21T00:41:59.538Z,100.00
2023-03-21T00:44:27.018Z,100.00
2023-03-21T00:47:06.686Z,100.00
2023-03-21T00:49:38.623Z,100.00
2023-03-21T00:52:18.286Z,100.00
2023-03-21T00:54:47.771Z,100.00
2023-03-21T00:57:15.768Z,100.00
2023-03-21T00:59:43.578Z,100.00
2023-03-21T01:02:14.689Z,98.45
2023-03-21T01:04:43.761Z,97.37
2023-03-21T01:07:11.245Z,96.50
2023-03-21T01:09:39.355Z,96.35
2023-03-21T01:12:06.985Z,96.05
2023-03-21T01:14:34.488Z,95.72
2023-03-21T01:17:01.964Z,96.01
2023-03-21T01:19:48.316Z,95.71
2023-03-21T01:22:19.360Z,95.52
2023-03-21T01:24:55.184Z,94.73
2023-03-21T01:27:26.114Z,95.09
2023-03-21T01:29:53.598Z,95.09
2023-03-21T01:32:21.110Z,96.37
2023-03-21T01:34:48.625Z,97.28
2023-03-21T01:37:17.739Z,97.99
2023-03-21T01:39:46.885Z,99.19
2023-03-21T01:42:15.443Z,99.92
2023-03-21T01:44:55.298Z,100.00
2023-03-21T01:47:22.963Z,99.45
2023-03-21T01:49:53.396Z,99.37
2023-03-21T01:52:35.761Z,99.17
2023-03-21T01:55:11.777Z,99.09
2023-03-21T01:57:58.230Z,99.49
2023-03-21T02:00:32.537Z,99.09
2023-03-21T02:03:11.455Z,99.10
2023-03-21T02:05:45.202Z,100.00
2023-03-21T02:08:13.198Z,100.00
2023-03-21T02:10:43.912Z,100.00
2023-03-21T02:13:11.559Z,100.00
2023-03-21T02:15:41.257Z,100.00
2023-03-21T02:18:18.022Z,100.00
2023-03-21T02:21:07.852Z,100.00
2023-03-21T02:24:10.271Z,100.00
2023-03-21T02:27:01.381Z,100.00
2023-03-21T02:30:13.076Z,100.00
2023-03-21T02:33:12.032Z,100.00
2023-03-21T02:36:00.532Z,100.00
2023-03-21T02:38:37.572Z,100.00
2023-03-21T02:41:18.395Z,100.00
2023-03-21T02:43:53.330Z,100.00
2023-03-21T02:46:33.268Z,100.00
2023-03-21T02:49:10.828Z,100.00
2023-03-21T02:51:41.704Z,100.00
2023-03-21T02:54:30.359Z,100.00
2023-03-21T02:57:04.458Z,100.00
2023-03-21T02:59:35.811Z,100.00
2023-03-21T03:02:06.039Z,100.00
2023-03-21T03:04:33.673Z,100.00
2023-03-21T03:07:18.125Z,100.00
2023-03-21T03:10:04.679Z,100.00
2023-03-21T03:12:40.254Z,100.00
2023-03-21T03:15:17.850Z,100.00
2023-03-21T03:17:52.907Z,100.00
2023-03-21T03:20:29.744Z,100.00
2023-03-21T03:23:05.569Z,100.00
2023-03-21T03:25:43.264Z,100.00
2023-03-21T03:28:14.342Z,100.00
2023-03-21T03:30:51.244Z,99.98
2023-03-21T03:33:30.868Z,99.90
2023-03-21T03:36:06.231Z,100.00
2023-03-21T03:38:36.028Z,100.00
2023-03-21T03:41:11.670Z,100.00
2023-03-21T03:43:46.817Z,100.00
2023-03-21T03:46:18.805Z,100.00
2023-03-21T03:48:51.329Z,100.00
2023-03-21T03:51:24.671Z,100.00
2023-03-21T03:53:57.724Z,99.77
2023-03-21T03:56:27.373Z,99.15
2023-03-21T03:58:54.911Z,98.81
2023-03-21T04:01:22.537Z,98.55
2023-03-21T04:03:56.390Z,98.26
2023-03-21T04:06:32.568Z,97.85
2023-03-21T04:09:03.482Z,97.64
2023-03-21T04:11:34.293Z,97.93
2023-03-21T04:14:01.751Z,97.91
2023-03-21T04:16:33.392Z,98.69
2023-03-21T04:19:03.926Z,99.18
2023-03-21T04:21:31.507Z,99.77
2023-03-21T04:23:59.538Z,100.00
2023-03-21T04:26:32.785Z,100.00
2023-03-21T04:29:02.229Z,100.00
2023-03-21T04:31:31.022Z,100.00
2023-03-21T04:34:01.589Z,100.00
2023-03-21T04:36:30.630Z,100.00
2023-03-21T04:39:00.799Z,100.00
2023-03-21T04:41:28.973Z,100.00
2023-03-21T04:43:56.678Z,100.00
2023-03-21T04:46:25.632Z,100.00
2023-03-21T04:48:53.117Z,100.00
2023-03-21T04:51:20.694Z,100.00
2023-03-21T04:53:49.373Z,100.00
2023-03-21T04:56:17.507Z,100.00
2023-03-21T04:58:45.380Z,100.00
2023-03-21T05:01:14.450Z,100.00
2023-03-21T05:03:43.323Z,100.00
2023-03-21T05:06:11.288Z,100.00
2023-03-21T05:08:39.287Z,99.71
2023-03-21T05:11:07.285Z,99.25
2023-03-21T05:13:34.759Z,99.08
2023-03-21T05:16:02.227Z,100.00
2023-03-21T05:18:30.408Z,100.00
2023-03-21T05:20:59.225Z,100.00
2023-03-21T05:23:31.650Z,100.00
2023-03-21T05:25:59.134Z,100.00
2023-03-21T05:28:31.398Z,99.88
2023-03-21T05:30:58.971Z,98.68
2023-03-21T05:33:26.468Z,98.61
2023-03-21T05:35:53.998Z,98.77
2023-03-21T05:38:22.884Z,98.04
2023-03-21T05:40:50.885Z,96.82
2023-03-21T05:43:18.746Z,95.02
2023-03-21T05:45:48.172Z,94.37
2023-03-21T05:48:15.984Z,94.77
2023-03-21T05:50:43.507Z,89.42
2023-03-21T05:53:11.030Z,86.45
2023-03-21T05:55:40.321Z,86.20
2023-03-21T05:58:07.939Z,86.12
2023-03-21T06:00:35.457Z,86.21
2023-03-21T06:03:03.031Z,86.41
2023-03-21T06:05:30.773Z,84.67
2023-03-21T06:07:58.281Z,85.41
2023-03-21T06:10:25.776Z,86.21
2023-03-21T06:12:54.612Z,86.07
2023-03-21T06:15:22.106Z,86.42
2023-03-21T06:17:49.563Z,86.14
2023-03-21T06:20:17.282Z,84.30
2023-03-21T06:22:45.080Z,81.21
2023-03-21T06:25:12.830Z,80.01
2023-03-21T06:27:40.384Z,78.26
2023-03-21T06:30:10.964Z,78.69
2023-03-21T06:32:38.514Z,79.17
2023-03-21T06:35:07.314Z,76.88
2023-03-21T06:37:35.072Z,76.60
2023-03-21T06:40:03.833Z,76.17
2023-03-21T06:42:32.449Z,77.33
2023-03-21T06:44:59.895Z,78.87
2023-03-21T06:47:28.737Z,78.22
2023-03-21T06:49:56.180Z,76.96
2023-03-21T06:52:23.721Z,76.50
2023-03-21T06:54:51.868Z,77.71
2023-03-21T06:57:21.822Z,77.33
2023-03-21T06:59:49.362Z,73.96
2023-03-21T07:02:17.174Z,70.90
2023-03-21T07:04:46.012Z,70.15
2023-03-21T07:07:13.477Z,67.57
2023-03-21T07:09:42.146Z,62.85
2023-03-21T07:12:10.093Z,60.35
2023-03-21T07:14:37.580Z,54.49
2023-03-21T07:17:05.170Z,52.12
2023-03-21T07:19:32.877Z,47.41
2023-03-21T07:22:02.250Z,44.86
2023-03-21T07:24:29.758Z,41.26
2023-03-21T07:26:57.257Z,40.79
2023-03-21T07:29:25.363Z,41.42
2023-03-21T07:31:52.905Z,42.47
2023-03-21T07:34:20.727Z,44.43
2023-03-21T07:36:48.196Z,44.30
2023-03-21T07:39:17.839Z,46.92
2023-03-21T07:41:45.473Z,45.00
2023-03-21T07:44:12.924Z,44.33
2023-03-21T07:46:40.874Z,42.37
2023-03-21T07:49:08.818Z,40.72
2023-03-21T07:51:36.780Z,37.80
2023-03-21T07:54:04.613Z,39.57
2023-03-21T07:56:33.531Z,43.04
2023-03-21T07:59:01.125Z,42.75
2023-03-21T08:01:28.745Z,42.24
2023-03-21T08:03:56.270Z,41.52
2023-03-21T08:06:28.048Z,40.96
2023-03-21T08:08:55.822Z,41.83
2023-03-21T08:11:24.569Z,47.33
2023-03-21T08:13:53.912Z,46.46
2023-03-21T08:16:21.581Z,49.77
2023-03-21T08:18:49.103Z,52.15
2023-03-21T08:21:16.709Z,52.26
2023-03-21T08:23:44.201Z,48.36
2023-03-21T08:26:15.896Z,48.10
2023-03-21T08:28:43.376Z,44.92
2023-03-21T08:31:13.781Z,44.86
2023-03-21T08:33:41.364Z,43.39
2023-03-21T08:36:10.298Z,42.46
2023-03-21T08:38:37.905Z,39.38
2023-03-21T08:41:05.682Z,40.26
2023-03-21T08:43:33.173Z,38.63
2023-03-21T08:46:00.719Z,38.31
2023-03-21T08:48:29.551Z,37.57
2023-03-21T08:50:57.026Z,36.49
2023-03-21T08:53:24.511Z,35.91
2023-03-21T08:55:51.997Z,35.08
2023-03-21T08:58:19.479Z,34.69
2023-03-21T09:00:46.968Z,33.78
2023-03-21T09:03:14.608Z,33.51
2023-03-21T09:05:45.542Z,39.83
2023-03-21T09:08:13.926Z,41.56
2023-03-21T09:10:41.398Z,41.04
2023-03-21T09:13:08.883Z,40.68
2023-03-21T09:15:36.542Z,39.19
2023-03-21T09:18:13.649Z,37.03
2023-03-21T09:20:42.873Z,37.54
2023-03-21T09:23:13.109Z,36.00
2023-03-21T09:25:41.205Z,37.23
2023-03-21T09:28:09.691Z,38.62
2023-03-21T09:30:37.693Z,41.42
2023-03-21T09:33:09.596Z,41.83
2023-03-21T09:35:37.475Z,42.36
2023-03-21T09:38:05.807Z,39.76
2023-03-21T09:40:52.616Z,40.96
2023-03-21T09:43:35.448Z,41.48
2023-03-21T09:46:10.176Z,42.17
2023-03-21T09:48:55.967Z,40.59
2023-03-21T09:51:27.090Z,38.48
2023-03-21T09:53:58.554Z,38.72
2023-03-21T09:56:27.526Z,38.54
2023-03-21T09:58:59.243Z,44.09
2023-03-21T10:01:32.850Z,41.45
2023-03-21T10:04:04.682Z,42.71
2023-03-21T10:06:33.828Z,44.96
2023-03-21T10:09:06.560Z,42.80
2023-03-21T10:11:44.337Z,38.78
2023-03-21T10:14:19.580Z,36.92
2023-03-21T10:16:50.341Z,39.45
2023-03-21T10:19:21.256Z,39.83
2023-03-21T10:22:00.657Z,42.31
2023-03-21T10:24:30.348Z,40.90
2023-03-21T10:26:59.956Z,39.14
2023-03-21T10:29:31.326Z,37.58
2023-03-21T10:31:58.854Z,37.87
2023-03-21T10:34:32.871Z,39.71
2023-03-21T10:37:01.520Z,38.90
2023-03-21T10:39:34.986Z,36.81
2023-03-21T10:42:03.892Z,37.44
2023-03-21T10:44:33.421Z,35.77
2023-03-21T10:47:06.738Z,36.79
2023-03-21T10:49:40.712Z,36.04
2023-03-21T10:52:21.086Z,36.37
2023-03-21T10:54:49.236Z,37.39
2023-03-21T10:57:22.252Z,35.32
2023-03-21T10:59:54.429Z,35.43
2023-03-21T11:02:27.536Z,36.13
2023-03-21T11:04:56.258Z,37.26
2023-03-21T11:07:25.918Z,37.45
2023-03-21T11:09:56.517Z,35.89
2023-03-21T11:12:33.577Z,34.98
2023-03-21T11:15:26.248Z,43.15
2023-03-21T11:17:54.013Z,41.67
2023-03-21T11:20:21.770Z,39.43
2023-03-21T11:22:50.320Z,38.09
2023-03-21T11:25:26.014Z,41.01
2023-03-21T11:27:56.453Z,41.87
2023-03-21T11:30:26.501Z,40.08
2023-03-21T11:32:57.286Z,39.01
2023-03-21T11:35:29.022Z,36.99
2023-03-21T11:37:57.559Z,38.47
2023-03-21T11:40:27.713Z,37.54
2023-03-21T11:42:58.394Z,38.62
2023-03-21T11:45:27.970Z,37.12
2023-03-21T11:47:58.943Z,36.66
2023-03-21T11:50:33.819Z,35.61
2023-03-21T11:53:17.033Z,37.07
2023-03-21T11:55:54.008Z,37.71
2023-03-21T11:58:36.094Z,37.77
2023-03-21T12:01:10.252Z,37.10
2023-03-21T12:03:49.307Z,38.70
2023-03-21T12:06:26.159Z,36.97
2023-03-21T12:09:19.145Z,37.09
2023-03-21T12:11:59.092Z,36.22
2023-03-21T12:14:36.888Z,34.49
2023-03-21T12:17:13.662Z,35.22
2023-03-21T12:20:01.880Z,33.93
2023-03-21T12:22:37.740Z,33.05
2023-03-21T12:25:12.056Z,35.74
2023-03-21T12:27:48.104Z,33.81
2023-03-21T12:30:31.254Z,34.64
2023-03-21T12:33:13.534Z,37.03
2023-03-21T12:35:53.976Z,36.35
2023-03-21T12:38:24.793Z,36.20
2023-03-21T12:41:06.678Z,35.44
2023-03-21T12:43:45.270Z,35.58
2023-03-21T12:46:20.035Z,34.74
2023-03-21T12:48:51.201Z,37.64
2023-03-21T12:51:21.810Z,36.79
2023-03-21T12:53:56.573Z,35.52
2023-03-21T12:56:29.996Z,35.17
2023-03-21T12:59:02.538Z,35.61
2023-03-21T13:01:33.670Z,36.94
2023-03-21T13:04:17.949Z,39.93
2023-03-21T13:06:49.195Z,42.48
2023-03-21T13:09:28.533Z,41.61
2023-03-21T13:12:14.150Z,39.64
2023-03-21T13:14:49.901Z,38.32
2023-03-21T13:17:26.960Z,39.75
2023-03-21T13:20:04.874Z,39.88
2023-03-21T13:22:32.849Z,38.03
2023-03-21T13:25:04.598Z,40.53
2023-03-21T13:27:33.633Z,42.23
2023-03-21T13:30:06.360Z,41.45
2023-03-21T13:32:37.523Z,38.82
2023-03-21T13:35:15.924Z,38.73
2023-03-21T13:37:51.019Z,37.01
2023-03-21T13:40:24.051Z,37.17
2023-03-21T13:42:53.747Z,35.92
2023-03-21T13:45:28.683Z,34.31
2023-03-21T13:47:59.132Z,36.94
2023-03-21T13:51:00.806Z,37.84
2023-03-21T13:53:32.560Z,40.32
2023-03-21T13:56:23.592Z,42.76
2023-03-21T13:58:59.952Z,43.82
2023-03-21T14:01:34.811Z,45.73
2023-03-21T14:04:12.026Z,44.53
2023-03-21T14:06:45.753Z,42.08
2023-03-21T14:09:23.148Z,40.01
2023-03-21T14:11:54.707Z,39.61
2023-03-21T14:14:27.488Z,38.71
2023-03-21T14:16:55.033Z,38.14
2023-03-21T14:19:30.805Z,37.41
2023-03-21T14:21:58.933Z,38.13
2023-03-21T14:24:26.531Z,40.23
2023-03-21T14:26:55.736Z,40.15
2023-03-21T14:29:28.244Z,39.07
2023-03-21T14:31:58.310Z,39.42
2023-03-21T14:34:28.358Z,39.20
2023-03-21T14:36:58.478Z,38.73
2023-03-21T14:39:29.776Z,39.48
2023-03-21T14:42:03.050Z,41.66
2023-03-21T14:44:47.391Z,43.03
2023-03-21T14:47:21.213Z,42.40
2023-03-21T14:49:51.400Z,42.49
2023-03-21T14:52:23.479Z,42.39
2023-03-21T14:54:51.926Z,45.08
2023-03-21T14:57:21.546Z,44.83
2023-03-21T14:59:53.074Z,43.74
2023-03-21T15:02:24.243Z,41.78
2023-03-21T15:04:55.255Z,43.07
2023-03-21T15:07:27.955Z,42.96
2023-03-21T15:09:58.869Z,43.04
2023-03-21T15:12:26.337Z,42.70
2023-03-21T15:14:55.322Z,43.43
2023-03-21T15:17:23.702Z,44.72
2023-03-21T15:19:52.962Z,44.86
2023-03-21T15:22:34.121Z,45.37
2023-03-21T15:25:04.870Z,48.56
2023-03-21T15:27:36.023Z,48.49
2023-03-21T15:30:03.626Z,49.06
2023-03-21T15:32:31.228Z,46.89
2023-03-21T15:35:09.115Z,47.59
2023-03-21T15:37:38.578Z,48.49
2023-03-21T15:40:17.412Z,48.86
2023-03-21T15:42:45.274Z,49.27
2023-03-21T15:45:19.735Z,49.91
2023-03-21T15:47:53.951Z,48.78
2023-03-21T15:50:35.668Z,48.37
2023-03-21T15:53:07.680Z,48.25
2023-03-21T15:55:48.064Z,48.33
2023-03-21T15:58:18.450Z,49.14
2023-03-21T16:00:53.593Z,51.28
2023-03-21T16:03:27.563Z,52.02
2023-03-21T16:06:11.045Z,53.27
2023-03-21T16:08:44.571Z,52.38
2023-03-21T16:11:17.992Z,50.41
2023-03-21T16:13:45.855Z,51.01
2023-03-21T16:16:17.939Z,49.98
2023-03-21T16:18:45.761Z,49.04
2023-03-21T16:21:16.074Z,49.46
2023-03-21T16:23:43.638Z,49.84
2023-03-21T16:26:12.946Z,50.30
2023-03-21T16:28:40.586Z,49.71
2023-03-21T16:31:13.574Z,49.72
2023-03-21T16:33:41.191Z,49.15
2023-03-21T16:36:18.009Z,48.97
2023-03-21T16:38:45.946Z,49.61
2023-03-21T16:41:13.836Z,49.28
2023-03-21T16:43:43.192Z,49.74
2023-03-21T16:46:14.369Z,49.49
2023-03-21T16:48:44.081Z,49.83
2023-03-21T16:51:15.053Z,49.41
2023-03-21T16:53:42.614Z,49.50
2023-03-21T16:56:15.480Z,49.77
2023-03-21T16:58:43.012Z,49.76
2023-03-21T17:01:14.901Z,50.31
2023-03-21T17:03:43.023Z,50.03
2023-03-21T17:06:16.509Z,50.36
2023-03-21T17:08:44.855Z,51.21
2023-03-21T17:11:13.094Z,51.83
2023-03-21T17:13:40.681Z,52.89
2023-03-21T17:16:08.726Z,52.98
2023-03-21T17:18:36.191Z,52.89
2023-03-21T17:21:03.789Z,53.46
2023-03-21T17:23:32.574Z,53.77
2023-03-21T17:26:00.110Z,55.57
2023-03-21T17:28:27.597Z,56.50
2023-03-21T17:30:55.240Z,56.35
2023-03-21T17:33:22.944Z,57.11
2023-03-21T17:35:50.693Z,57.55
2023-03-21T17:38:18.462Z,58.02
2023-03-21T17:40:48.990Z,59.43
2023-03-21T17:43:20.287Z,57.62
2023-03-21T17:45:47.835Z,57.29
2023-03-21T17:48:15.396Z,58.58
2023-03-21T17:50:43.118Z,58.59
2023-03-21T17:53:10.657Z,59.57
2023-03-21T17:55:38.128Z,62.05
2023-03-21T17:58:07.000Z,62.56
2023-03-21T18:00:34.597Z,63.51
2023-03-21T18:03:02.074Z,63.51
2023-03-21T18:05:29.580Z,61.66
2023-03-21T18:08:12.980Z,62.22
2023-03-21T18:10:41.781Z,61.90
2023-03-21T18:13:11.661Z,63.26
2023-03-21T18:15:44.099Z,63.04
2023-03-21T18:18:15.622Z,63.48
2023-03-21T18:20:51.607Z,62.30
2023-03-21T18:23:20.709Z,62.03
2023-03-21T18:25:48.201Z,61.16
2023-03-21T18:28:20.470Z,61.28
2023-03-21T18:31:07.335Z,61.83
2023-03-21T18:33:37.702Z,62.40
2023-03-21T18:36:07.826Z,63.19
2023-03-21T18:38:36.531Z,62.98
2023-03-21T18:41:04.361Z,62.39
2023-03-21T18:46:21.002Z,60.10
2023-03-21T18:48:49.235Z,63.56
2023-03-21T18:51:17.682Z,65.89
2023-03-21T18:53:45.663Z,67.68
2023-03-21T18:56:40.830Z,69.54
2023-03-21T18:59:03.413Z,70.65
2023-03-21T19:01:31.406Z,72.63
2023-03-21T19:06:48.404Z,75.74
2023-03-21T19:09:17.949Z,73.70
2023-03-21T19:11:45.682Z,74.57
2023-03-21T19:14:17.214Z,75.63
2023-03-21T19:17:23.134Z,77.77
2023-03-21T19:19:32.444Z,79.10
2023-03-21T19:21:59.960Z,78.02
2023-03-21T19:24:29.018Z,78.50
2023-03-21T19:26:56.927Z,77.47
2023-03-21T19:29:25.778Z,76.87
2023-03-21T19:31:53.563Z,76.49
2023-03-21T19:34:21.636Z,79.14
2023-03-21T19:36:51.804Z,78.58
2023-03-21T19:39:22.060Z,79.65
2023-03-21T19:41:50.183Z,80.08
2023-03-21T19:44:17.914Z,77.93
2023-03-21T19:46:52.702Z,78.16
2023-03-21T19:49:22.655Z,77.94
2023-03-21T19:51:53.758Z,77.75
2023-03-21T19:54:23.349Z,77.97
2023-03-21T19:56:51.478Z,80.51
2023-03-21T19:59:19.764Z,86.76
2023-03-21T20:01:48.812Z,82.31
2023-03-21T20:04:19.102Z,80.65
2023-03-21T20:06:46.603Z,78.29
2023-03-21T20:09:50.019Z,77.90
2023-03-21T20:12:02.495Z,77.16
2023-03-21T20:14:30.104Z,79.89
2023-03-21T20:16:57.797Z,79.16
2023-03-21T20:19:27.211Z,78.85
2023-03-21T20:21:59.366Z,79.03
2023-03-21T20:24:29.470Z,78.88
2023-03-21T20:26:57.316Z,78.84
2023-03-21T20:32:12.400Z,78.60
2023-03-21T20:34:41.255Z,78.71
2023-03-21T20:37:09.652Z,78.65
2023-03-21T20:39:37.512Z,78.84
2023-03-21T20:42:05.758Z,79.65
2023-03-21T20:44:58.289Z,80.28
2023-03-21T20:47:20.853Z,81.43
2023-03-21T20:49:49.715Z,81.04
2023-03-21T20:55:06.746Z,80.34
2023-03-21T20:57:34.846Z,81.57
2023-03-21T21:00:02.532Z,82.34
2023-03-21T21:02:30.035Z,83.35
2023-03-21T21:05:24.118Z,83.13
2023-03-21T21:07:48.972Z,82.65
2023-03-21T21:10:18.623Z,83.46
2023-03-21T21:12:46.186Z,82.63
2023-03-21T21:15:16.525Z,82.50
2023-03-21T21:18:04.802Z,82.64
2023-03-21T21:20:34.104Z,83.79
2023-03-21T21:23:01.635Z,85.63
2023-03-21T21:25:30.520Z,85.63
2023-03-21T21:27:58.108Z,85.78
2023-03-21T21:30:25.922Z,86.22
2023-03-21T21:32:53.926Z,86.56
2023-03-21T21:35:22.304Z,87.39
2023-03-21T21:37:51.913Z,87.36
2023-03-21T21:40:23.043Z,86.78
2023-03-21T21:42:50.772Z,86.27
2023-03-21T21:45:19.234Z,86.40
2023-03-21T21:47:47.148Z,87.15
2023-03-21T21:50:15.192Z,85.98
2023-03-21T21:52:52.361Z,85.38
2023-03-21T21:55:21.574Z,85.09
2023-03-21T21:57:50.624Z,84.93
2023-03-21T22:00:20.555Z,84.80
2023-03-21T22:02:48.126Z,84.44
2023-03-21T22:05:16.252Z,83.73
2023-03-21T22:07:44.297Z,83.36
2023-03-21T22:10:12.171Z,83.91
2023-03-21T22:12:41.046Z,83.95
2023-03-21T22:15:10.654Z,83.71
2023-03-21T22:17:38.863Z,83.45
2023-03-21T22:20:08.800Z,83.42
2023-03-21T22:22:37.456Z,83.11
2023-03-21T22:25:07.214Z,83.24
2023-03-21T22:27:35.190Z,83.70
2023-03-21T22:30:05.251Z,84.39
2023-03-21T22:32:33.112Z,84.35
2023-03-21T22:35:02.253Z,84.05
2023-03-21T22:37:30.216Z,85.64
2023-03-21T22:39:57.690Z,87.77
2023-03-21T22:42:25.243Z,88.47
2023-03-21T22:44:53.047Z,90.18
2023-03-21T22:47:21.905Z,90.39
2023-03-21T22:49:49.371Z,88.30
2023-03-21T22:52:16.949Z,87.94
2023-03-21T22:54:45.805Z,87.79
2023-03-21T22:57:13.957Z,90.26
2023-03-21T22:59:41.613Z,92.90
2023-03-21T23:02:09.969Z,94.65
2023-03-21T23:04:39.042Z,95.82
2023-03-21T23:07:06.779Z,95.26
2023-03-21T23:09:35.074Z,93.69
2023-03-21T23:12:02.619Z,98.81
2023-03-21T23:14:30.178Z,96.68
2023-03-21T23:17:00.073Z,94.13
2023-03-21T23:19:29.283Z,92.16
2023-03-21T23:21:58.538Z,92.68
2023-03-21T23:24:26.540Z,93.55
2023-03-21T23:26:54.021Z,92.02
2023-03-21T23:29:21.535Z,91.24
2023-03-21T23:31:49.501Z,90.21
2023-03-21T23:34:17.061Z,89.92
2023-03-21T23:36:44.572Z,91.01
2023-03-21T23:39:13.405Z,92.01
2023-03-21T23:41:42.663Z,90.57
2023-03-21T23:44:10.181Z,89.89
2023-03-21T23:46:37.691Z,89.70
2023-03-21T23:49:05.398Z,97.65
2023-03-21T23:51:32.891Z,91.56
2023-03-21T23:54:00.383Z,89.37
2023-03-21T23:56:29.239Z,88.57
2023-03-21T23:58:58.407Z,88.77
